createdAt,value
2018-05-15T00:00:36.891Z,97768
2018-05-15T00:03:06.001Z,97766
2018-05-15T00:05:34.060Z,97769
2018-05-15T00:08:01.370Z,97757
2018-05-15T00:10:28.954Z,97761
2018-05-15T00:12:57.301Z,97760
2018-05-15T00:15:24.682Z,97762
2018-05-15T00:17:52.061Z,97758
2018-05-15T00:20:21.029Z,97765
2018-05-15T00:22:48.442Z,97756
2018-05-15T00:25:15.920Z,97754
2018-05-15T00:27:43.252Z,97752
2018-05-15T00:30:10.591Z,97756
2018-05-15T00:32:37.830Z,97757
2018-05-15T00:35:05.231Z,97745
2018-05-15T00:37:32.571Z,97755
2018-05-15T00:40:03.444Z,97757
2018-05-15T00:42:31.402Z,97751
2018-05-15T00:44:58.910Z,97745
2018-05-15T00:47:26.392Z,97754
2018-05-15T00:49:53.609Z,97759
2018-05-15T00:52:24.450Z,97753
2018-05-15T00:54:52.051Z,97755
2018-05-15T00:57:19.299Z,97745
2018-05-15T00:59:46.681Z,97747
2018-05-15T01:02:15.744Z,97753
2018-05-15T01:04:43.310Z,97753
2018-05-15T01:07:10.880Z,97749
2018-05-15T01:09:41.129Z,97744
2018-05-15T01:12:08.400Z,97760
2018-05-15T01:14:36.161Z,97747
2018-05-15T01:17:03.779Z,97750
2018-05-15T01:19:34.929Z,97734
2018-05-15T01:22:03.351Z,97747
2018-05-15T01:24:32.110Z,97741
2018-05-15T01:26:59.433Z,97752
2018-05-15T01:29:26.790Z,97741
2018-05-15T01:31:54.031Z,97753
2018-05-15T01:34:21.441Z,97741
2018-05-15T01:36:50.230Z,97748
2018-05-15T01:39:17.801Z,97754
2018-05-15T01:41:45.370Z,97720
2018-05-15T01:44:12.982Z,97746
2018-05-15T01:46:40.270Z,97735
2018-05-15T01:49:09.341Z,97738
2018-05-15T01:51:36.833Z,97742
2018-05-15T01:54:05.841Z,97743
2018-05-15T01:56:34.041Z,97739
2018-05-15T01:59:02.364Z,97738
2018-05-15T02:01:29.850Z,97729
2018-05-15T02:03:57.369Z,97745
2018-05-15T02:06:25.770Z,97739
2018-05-15T02:08:53.241Z,97717
2018-05-15T02:11:20.681Z,97724
2018-05-15T02:13:48.530Z,97724
2018-05-15T02:16:15.981Z,97725
2018-05-15T02:18:43.733Z,97746
2018-05-15T02:21:11.211Z,97738
2018-05-15T02:23:38.731Z,97744
2018-05-15T02:26:06.200Z,97746
2018-05-15T02:28:34.650Z,97734
2018-05-15T02:31:01.981Z,97740
2018-05-15T02:33:29.478Z,97739
2018-05-15T02:35:57.070Z,97743
2018-05-15T02:38:25.430Z,97750
2018-05-15T02:40:52.992Z,97747
2018-05-15T02:43:20.596Z,97753
2018-05-15T02:45:48.051Z,97754
2018-05-15T02:48:15.500Z,97756
2018-05-15T02:50:43.070Z,97751
2018-05-15T02:53:10.681Z,97750
2018-05-15T02:55:38.885Z,97760
2018-05-15T02:58:06.396Z,97757
2018-05-15T03:00:34.181Z,97738
2018-05-15T03:03:01.692Z,97746
2018-05-15T03:05:29.463Z,97747
2018-05-15T03:07:57.170Z,97739
2018-05-15T03:10:24.600Z,97746
2018-05-15T03:12:52.211Z,97757
2018-05-15T03:15:19.671Z,97759
2018-05-15T03:17:46.922Z,97756
2018-05-15T03:20:14.760Z,97765
2018-05-15T03:22:42.042Z,97758
2018-05-15T03:25:10.351Z,97758
2018-05-15T03:27:37.751Z,97759
2018-05-15T03:30:05.173Z,97769
2018-05-15T03:32:32.830Z,97774
2018-05-15T03:35:00.121Z,97766
2018-05-15T03:37:31.060Z,97781
2018-05-15T03:40:02.941Z,97780
2018-05-15T03:42:31.096Z,97787
2018-05-15T03:44:58.651Z,97779
2018-05-15T03:47:26.670Z,97781
2018-05-15T03:49:54.040Z,97806
2018-05-15T03:52:21.892Z,97791
2018-05-15T03:54:49.401Z,97805
2018-05-15T03:57:16.753Z,97811
2018-05-15T03:59:44.199Z,97800
2018-05-15T04:02:29.360Z,97821
2018-05-15T04:05:15.109Z,97814
2018-05-15T04:10:48.014Z,97814
2018-05-15T04:13:15.270Z,97817
2018-05-15T04:15:42.590Z,97823
2018-05-15T04:18:10.040Z,97827
2018-05-15T04:20:38.602Z,97817
2018-05-15T04:23:07.294Z,97825
2018-05-15T04:25:36.931Z,97827
2018-05-15T04:28:06.165Z,97836
2018-05-15T04:30:34.380Z,97831
2018-05-15T04:33:03.201Z,97833
2018-05-15T04:35:30.723Z,97841
2018-05-15T04:38:00.010Z,97844
2018-05-15T04:40:28.180Z,97849
2018-05-15T04:42:55.580Z,97851
2018-05-15T04:45:23.221Z,97853
2018-05-15T04:47:50.699Z,97842
2018-05-15T04:50:18.279Z,97853
2018-05-15T04:52:45.592Z,97847
2018-05-15T04:55:13.003Z,97850
2018-05-15T04:57:41.489Z,97856
2018-05-15T05:00:08.811Z,97862
2018-05-15T05:02:38.130Z,97861
2018-05-15T05:05:05.460Z,97855
2018-05-15T05:07:33.820Z,97862
2018-05-15T05:10:01.991Z,97862
2018-05-15T05:12:30.331Z,97864
2018-05-15T05:14:57.700Z,97867
2018-05-15T05:17:25.763Z,97868
2018-05-15T05:19:53.091Z,97867
2018-05-15T05:22:21.814Z,97867
2018-05-15T05:24:49.230Z,97877
2018-05-15T05:27:16.739Z,97883
2018-05-15T05:29:44.070Z,97878
2018-05-15T05:32:11.300Z,97879
2018-05-15T05:34:39.890Z,97887
2018-05-15T05:37:07.210Z,97895
2018-05-15T05:39:34.631Z,97901
2018-05-15T05:42:02.031Z,97897
2018-05-15T05:44:29.281Z,97893
2018-05-15T05:46:56.712Z,97900
2018-05-15T05:49:23.989Z,97912
2018-05-15T05:51:53.820Z,97907
2018-05-15T05:54:22.200Z,97916
2018-05-15T05:56:50.690Z,97918
2018-05-15T05:59:17.910Z,97916
2018-05-15T06:01:45.931Z,97923
2018-05-15T06:04:14.169Z,97922
2018-05-15T06:06:42.699Z,97929
2018-05-15T06:09:10.161Z,97927
2018-05-15T06:11:37.461Z,97932
2018-05-15T06:14:04.771Z,97929
2018-05-15T06:16:33.011Z,97932
2018-05-15T06:19:01.005Z,97942
2018-05-15T06:21:28.551Z,97938
2018-05-15T06:23:57.311Z,97947
2018-05-15T06:26:24.730Z,97956
2018-05-15T06:28:54.090Z,97948
2018-05-15T06:31:21.401Z,97958
2018-05-15T06:33:48.870Z,97957
2018-05-15T06:36:17.063Z,97953
2018-05-15T06:38:45.662Z,97951
2018-05-15T06:41:14.891Z,97958
2018-05-15T06:43:42.462Z,97950
2018-05-15T06:46:10.942Z,97957
2018-05-15T06:48:38.480Z,97951
2018-05-15T06:51:06.601Z,97960
2018-05-15T06:53:35.152Z,97960
2018-05-15T06:56:03.082Z,97955
2018-05-15T06:58:31.613Z,97956
2018-05-15T07:01:01.692Z,97956
2018-05-15T07:03:30.870Z,97957
2018-05-15T07:05:58.191Z,97948
2018-05-15T07:08:25.830Z,97953
2018-05-15T07:10:54.101Z,97952
2018-05-15T07:13:21.522Z,97954
2018-05-15T07:15:48.782Z,97955
2018-05-15T07:18:19.240Z,97959
2018-05-15T07:20:50.703Z,97956
2018-05-15T07:23:18.100Z,97960
2018-05-15T07:25:45.442Z,97955
2018-05-15T07:28:12.944Z,97958
2018-05-15T07:30:41.992Z,97968
2018-05-15T07:33:11.799Z,97963
2018-05-15T07:35:39.081Z,97958
2018-05-15T07:38:06.601Z,97959
2018-05-15T07:40:33.982Z,97961
2018-05-15T07:43:02.354Z,97955
2018-05-15T07:45:31.522Z,97953
2018-05-15T07:47:58.941Z,97961
2018-05-15T07:50:26.891Z,97955
2018-05-15T07:52:55.995Z,97946
2018-05-15T07:55:25.291Z,97948
2018-05-15T07:57:55.243Z,97953
2018-05-15T08:00:22.752Z,97953
2018-05-15T08:02:51.082Z,97950
2018-05-15T08:05:19.592Z,97948
2018-05-15T08:07:47.850Z,97952
2018-05-15T08:10:15.341Z,97951
2018-05-15T08:12:42.700Z,97962
2018-05-15T08:15:09.961Z,97961
2018-05-15T08:17:39.110Z,97959
2018-05-15T08:20:06.401Z,97969
2018-05-15T08:22:33.839Z,97964
2018-05-15T08:25:01.362Z,97961
2018-05-15T08:27:28.671Z,97970
2018-05-15T08:29:56.841Z,97969
2018-05-15T08:32:24.135Z,97978
2018-05-15T08:34:51.511Z,97974
2018-05-15T08:37:18.826Z,97968
2018-05-15T08:39:48.061Z,97972
2018-05-15T08:42:19.002Z,97976
2018-05-15T08:44:46.313Z,97975
2018-05-15T08:47:13.621Z,97978
2018-05-15T08:49:40.999Z,97982
2018-05-15T08:52:09.556Z,97975
2018-05-15T08:54:37.622Z,97974
2018-05-15T08:57:05.810Z,97980
2018-05-15T08:59:33.132Z,97980
2018-05-15T09:02:00.784Z,97983
2018-05-15T09:04:28.022Z,98001
2018-05-15T09:06:55.935Z,97989
2018-05-15T09:09:23.522Z,97989
2018-05-15T09:11:51.760Z,97993
2018-05-15T09:14:18.982Z,97996
2018-05-15T09:16:46.423Z,98002
2018-05-15T09:19:13.795Z,97997
2018-05-15T09:21:41.242Z,98001
2018-05-15T09:24:08.652Z,98005
2018-05-15T09:26:39.209Z,98011
2018-05-15T09:29:06.710Z,98011
2018-05-15T09:31:35.762Z,98010
2018-05-15T09:34:04.910Z,98011
2018-05-15T09:36:32.573Z,98016
2018-05-15T09:39:02.851Z,98013
2018-05-15T09:41:30.592Z,98025
2018-05-15T09:44:01.397Z,98010
2018-05-15T09:46:28.842Z,98014
2018-05-15T09:48:56.944Z,98014
2018-05-15T09:51:24.192Z,98022
2018-05-15T09:53:51.770Z,98023
2018-05-15T09:56:20.081Z,98013
2018-05-15T09:58:47.450Z,98010
2018-05-15T10:01:14.921Z,98015
2018-05-15T10:03:42.432Z,98016
2018-05-15T10:06:11.142Z,98027
2018-05-15T10:08:38.531Z,98028
2018-05-15T10:11:06.835Z,98030
2018-05-15T10:13:33.937Z,98033
2018-05-15T10:16:01.644Z,98032
2018-05-15T10:18:30.056Z,98036
2018-05-15T10:20:57.562Z,98038
2018-05-15T10:23:24.874Z,98039
2018-05-15T10:25:52.281Z,98036
2018-05-15T10:28:19.782Z,98044
2018-05-15T10:30:47.391Z,98046
2018-05-15T10:33:14.872Z,98048
2018-05-15T10:35:42.740Z,98051
2018-05-15T10:38:10.261Z,98059
2018-05-15T10:40:37.816Z,98059
2018-05-15T10:43:05.330Z,98058
2018-05-15T10:45:32.881Z,98063
2018-05-15T10:48:00.372Z,98073
2018-05-15T10:50:27.891Z,98072
2018-05-15T10:52:56.151Z,98075
2018-05-15T10:55:23.691Z,98086
2018-05-15T10:57:51.251Z,98073
2018-05-15T11:00:19.423Z,98075
2018-05-15T11:02:47.321Z,98084
2018-05-15T11:05:14.861Z,98078
2018-05-15T11:07:43.404Z,98086
2018-05-15T11:10:11.073Z,98076
2018-05-15T11:12:38.806Z,98081
2018-05-15T11:15:06.551Z,98077
2018-05-15T11:17:33.941Z,98078
2018-05-15T11:20:19.164Z,98081
2018-05-15T11:23:05.371Z,98083
2018-05-15T11:25:32.891Z,98073
2018-05-15T11:28:01.261Z,98078
2018-05-15T11:30:28.911Z,98078
2018-05-15T11:32:56.341Z,98079
2018-05-15T11:35:24.011Z,98075
2018-05-15T11:37:51.435Z,98074
2018-05-15T11:40:19.761Z,98078
2018-05-15T11:42:47.284Z,98083
2018-05-15T11:45:15.851Z,98079
2018-05-15T11:47:44.163Z,98079
2018-05-15T11:50:14.527Z,98076
2018-05-15T11:52:41.533Z,98083
2018-05-15T11:55:08.563Z,98079
2018-05-15T11:57:35.901Z,98080
2018-05-15T12:00:04.660Z,98085
2018-05-15T12:02:31.982Z,98084
2018-05-15T12:04:59.401Z,98086
2018-05-15T12:07:26.770Z,98086
2018-05-15T12:09:54.683Z,98085
2018-05-15T12:12:22.035Z,98092
2018-05-15T12:14:49.432Z,98087
2018-05-15T12:17:17.612Z,98085
2018-05-15T12:19:45.011Z,98089
2018-05-15T12:22:12.391Z,98089
2018-05-15T12:24:39.995Z,98091
2018-05-15T12:27:07.511Z,98095
2018-05-15T12:29:35.072Z,98092
2018-05-15T12:32:02.701Z,98086
2018-05-15T12:34:29.971Z,98089
2018-05-15T12:36:57.333Z,98088
2018-05-15T12:39:27.052Z,98093
2018-05-15T12:41:55.532Z,98095
2018-05-15T12:44:23.132Z,98095
2018-05-15T12:46:52.110Z,98096
2018-05-15T12:49:19.470Z,98092
2018-05-15T12:51:48.672Z,98086
2018-05-15T12:54:16.091Z,98074
2018-05-15T12:56:44.320Z,98079
2018-05-15T12:59:11.672Z,98085
2018-05-15T13:01:39.462Z,98093
2018-05-15T13:04:06.972Z,98090
2018-05-15T13:06:34.431Z,98092
2018-05-15T13:09:02.021Z,98090
2018-05-15T13:11:29.571Z,98094
2018-05-15T13:13:56.881Z,98100
2018-05-15T13:16:25.234Z,98097
2018-05-15T13:18:52.412Z,98093
2018-05-15T13:21:20.042Z,98096
2018-05-15T13:23:47.186Z,98095
2018-05-15T13:26:14.280Z,98085
2018-05-15T13:28:41.661Z,98084
2018-05-15T13:31:09.160Z,98093
2018-05-15T13:33:36.600Z,98093
2018-05-15T13:36:04.008Z,98093
2018-05-15T13:38:31.430Z,98089
2018-05-15T13:40:58.875Z,98082
2018-05-15T13:43:26.261Z,98087
2018-05-15T13:45:54.400Z,98092
2018-05-15T13:48:21.840Z,98090
2018-05-15T13:50:49.325Z,98081
2018-05-15T13:53:16.826Z,98087
2018-05-15T13:55:44.380Z,98083
2018-05-15T13:58:12.620Z,98092
2018-05-15T14:00:40.154Z,98090
2018-05-15T14:03:07.492Z,98091
2018-05-15T14:05:35.413Z,98087
2018-05-15T14:08:03.202Z,98087
2018-05-15T14:10:30.720Z,98089
2018-05-15T14:12:58.060Z,98091
2018-05-15T14:15:25.760Z,98090
2018-05-15T14:17:53.980Z,98079
2018-05-15T14:20:21.553Z,98083
2018-05-15T14:22:48.971Z,98088
2018-05-15T14:25:16.920Z,98090
2018-05-15T14:27:44.280Z,98086
2018-05-15T14:30:11.751Z,98088
2018-05-15T14:32:40.790Z,98089
2018-05-15T14:35:09.021Z,98076
2018-05-15T14:37:36.750Z,98087
2018-05-15T14:40:05.032Z,98086
2018-05-15T14:42:51.030Z,98078
2018-05-15T14:45:18.981Z,98088
2018-05-15T14:47:46.441Z,98086
2018-05-15T14:50:16.460Z,98081
2018-05-15T14:52:45.251Z,98079
2018-05-15T14:55:13.714Z,98078
2018-05-15T14:57:42.255Z,98078
2018-05-15T15:00:09.640Z,98075
2018-05-15T15:02:37.220Z,98071
2018-05-15T15:05:05.491Z,98070
2018-05-15T15:07:34.826Z,98074
2018-05-15T15:10:03.451Z,98073
2018-05-15T15:12:33.640Z,98066
2018-05-15T15:15:01.186Z,98066
2018-05-15T15:17:28.722Z,98066
2018-05-15T15:19:56.230Z,98062
2018-05-15T15:22:26.522Z,98070
2018-05-15T15:24:53.900Z,98069
2018-05-15T15:27:22.271Z,98068
2018-05-15T15:29:49.659Z,98070
2018-05-15T15:32:18.826Z,98068
2018-05-15T15:34:46.392Z,98066
2018-05-15T15:37:14.100Z,98062
2018-05-15T15:39:41.510Z,98064
2018-05-15T15:42:08.844Z,98064
2018-05-15T15:44:36.382Z,98061
2018-05-15T15:47:04.570Z,98069
2018-05-15T15:49:32.961Z,98060
2018-05-15T15:52:00.670Z,98063
2018-05-15T15:54:28.079Z,98056
2018-05-15T15:56:55.521Z,98056
2018-05-15T15:59:22.863Z,98056
2018-05-15T16:01:50.991Z,98055
2018-05-15T16:04:18.426Z,98055
2018-05-15T16:06:45.942Z,98058
2018-05-15T16:09:14.271Z,98051
2018-05-15T16:11:41.620Z,98050
2018-05-15T16:14:09.081Z,98050
2018-05-15T16:16:36.750Z,98045
2018-05-15T16:19:04.151Z,98049
2018-05-15T16:21:33.109Z,98046
2018-05-15T16:24:00.972Z,98039
2018-05-15T16:26:28.451Z,98044
2018-05-15T16:28:57.090Z,98045
2018-05-15T16:31:25.441Z,98046
2018-05-15T16:33:53.123Z,98032
2018-05-15T16:36:20.551Z,98034
2018-05-15T16:38:49.830Z,98040
2018-05-15T16:41:17.701Z,98034
2018-05-15T16:43:45.950Z,98034
2018-05-15T16:46:13.701Z,98036
2018-05-15T16:48:41.081Z,98027
2018-05-15T16:51:08.555Z,98030
2018-05-15T16:53:37.001Z,98028
2018-05-15T16:56:04.959Z,98025
2018-05-15T16:58:32.450Z,98031
2018-05-15T17:01:00.139Z,98033
2018-05-15T17:03:27.931Z,98029
2018-05-15T17:05:56.099Z,98031
2018-05-15T17:08:26.361Z,98026
2018-05-15T17:10:55.374Z,98023
2018-05-15T17:13:22.812Z,98021
2018-05-15T17:15:52.630Z,98029
2018-05-15T17:18:20.201Z,98017
2018-05-15T17:20:52.793Z,98017
2018-05-15T17:23:20.329Z,98021
2018-05-15T17:25:51.779Z,98027
2018-05-15T17:28:19.921Z,98024
2018-05-15T17:30:48.791Z,98023
2018-05-15T17:33:16.130Z,98016
2018-05-15T17:35:43.510Z,98016
2018-05-15T17:38:12.865Z,98011
2018-05-15T17:40:44.581Z,98009
2018-05-15T17:43:12.200Z,98007
2018-05-15T17:45:40.579Z,98007
2018-05-15T17:48:07.949Z,97998
2018-05-15T17:50:35.512Z,97998
2018-05-15T17:53:02.990Z,97994
2018-05-15T17:55:30.629Z,97999
2018-05-15T17:57:58.040Z,97997
2018-05-15T18:00:26.135Z,97992
2018-05-15T18:02:53.580Z,97984
2018-05-15T18:05:21.069Z,97982
2018-05-15T18:07:48.949Z,97986
2018-05-15T18:10:16.340Z,97989
2018-05-15T18:12:44.490Z,97990
2018-05-15T18:15:12.130Z,97990
2018-05-15T18:17:40.301Z,97994
2018-05-15T18:20:07.721Z,97996
2018-05-15T18:22:35.410Z,98000
2018-05-15T18:25:03.100Z,98006
2018-05-15T18:27:30.487Z,98009
2018-05-15T18:29:58.720Z,98013
2018-05-15T18:32:26.554Z,98012
2018-05-15T18:34:54.001Z,98016
2018-05-15T18:37:21.950Z,98024
2018-05-15T18:39:49.289Z,98023
2018-05-15T18:42:17.319Z,98021
2018-05-15T18:44:44.787Z,98030
2018-05-15T18:47:12.819Z,98029
2018-05-15T18:49:40.260Z,98028
2018-05-15T18:52:08.154Z,98025
2018-05-15T18:54:35.630Z,98032
2018-05-15T18:57:03.142Z,98037
2018-05-15T18:59:31.430Z,98041
2018-05-15T19:01:59.020Z,98042
2018-05-15T19:04:26.469Z,98037
2018-05-15T19:06:53.929Z,98048
2018-05-15T19:09:21.637Z,98053
2018-05-15T19:11:49.890Z,98054
2018-05-15T19:14:17.389Z,98055
2018-05-15T19:16:45.719Z,98054
2018-05-15T19:19:13.130Z,98054
2018-05-15T19:21:40.591Z,98059
2018-05-15T19:24:08.060Z,98059
2018-05-15T19:26:36.990Z,98065
2018-05-15T19:29:04.138Z,98067
2018-05-15T19:31:37.581Z,98073
2018-05-15T19:34:10.890Z,98066
2018-05-15T19:39:44.487Z,98077
2018-05-15T19:42:11.751Z,98075
2018-05-15T19:44:40.001Z,98072
2018-05-15T19:47:08.110Z,98077
2018-05-15T19:49:36.755Z,98077
2018-05-15T19:52:06.221Z,98078
2018-05-15T19:54:36.170Z,98072
2018-05-15T19:57:03.439Z,98073
2018-05-15T19:59:32.530Z,98070
2018-05-15T20:01:59.917Z,98070
2018-05-15T20:04:27.360Z,98066
2018-05-15T20:06:54.821Z,98068
2018-05-15T20:09:22.161Z,98064
2018-05-15T20:11:49.582Z,98064
2018-05-15T20:14:16.870Z,98063
2018-05-15T20:16:44.959Z,98062
2018-05-15T20:19:12.411Z,98061
2018-05-15T20:21:39.761Z,98054
2018-05-15T20:24:07.041Z,98063
2018-05-15T20:26:34.741Z,98057
2018-05-15T20:29:03.159Z,98065
2018-05-15T20:31:30.720Z,98064
2018-05-15T20:33:58.840Z,98065
2018-05-15T20:36:26.711Z,98074
2018-05-15T20:38:54.032Z,98075
2018-05-15T20:41:23.461Z,98071
2018-05-15T20:43:50.921Z,98077
2018-05-15T20:46:18.180Z,98071
2018-05-15T20:48:48.420Z,98071
2018-05-15T20:51:16.851Z,98071
2018-05-15T20:53:45.360Z,98069
2018-05-15T20:56:12.928Z,98070
2018-05-15T20:58:40.360Z,98063
2018-05-15T21:01:07.731Z,98074
2018-05-15T21:03:35.111Z,98081
2018-05-15T21:06:04.872Z,98082
2018-05-15T21:08:33.862Z,98080
2018-05-15T21:11:01.070Z,98079
2018-05-15T21:13:28.500Z,98086
2018-05-15T21:15:56.011Z,98087
2018-05-15T21:18:23.272Z,98089
2018-05-15T21:20:52.510Z,98092
2018-05-15T21:23:20.120Z,98098
2018-05-15T21:25:48.940Z,98091
2018-05-15T21:28:17.411Z,98094
2018-05-15T21:30:46.764Z,98104
2018-05-15T21:33:14.012Z,98097
2018-05-15T21:35:48.211Z,98098
2018-05-15T21:38:16.662Z,98096
2018-05-15T21:40:43.992Z,98093
2018-05-15T21:43:11.461Z,98100
2018-05-15T21:45:38.771Z,98093
2018-05-15T21:48:06.171Z,98096
2018-05-15T21:50:34.765Z,98096
2018-05-15T21:53:02.890Z,98093
2018-05-15T21:55:30.202Z,98091
2018-05-15T21:58:00.790Z,98092
2018-05-15T22:00:28.451Z,98086
2018-05-15T22:02:56.002Z,98086
2018-05-15T22:05:23.281Z,98087
2018-05-15T22:07:50.980Z,98084
2018-05-15T22:10:18.431Z,98088
2018-05-15T22:13:03.782Z,98089
2018-05-15T22:15:48.931Z,98085
2018-05-15T22:18:34.212Z,98082
2018-05-15T22:21:19.552Z,98077
2018-05-15T22:23:50.181Z,98079
2018-05-15T22:26:18.922Z,98084
2018-05-15T22:28:46.441Z,98076
2018-05-15T22:31:14.550Z,98072
2018-05-15T22:33:42.322Z,98074
2018-05-15T22:36:09.712Z,98076
2018-05-15T22:38:37.783Z,98076
2018-05-15T22:41:05.232Z,98069
2018-05-15T22:43:34.602Z,98067
2018-05-15T22:46:02.785Z,98071
2018-05-15T22:48:31.122Z,98069
2018-05-15T22:51:00.241Z,98075
2018-05-15T22:53:27.910Z,98074
2018-05-15T22:55:55.041Z,98076
2018-05-15T22:58:22.511Z,98078
2018-05-15T23:00:50.779Z,98075
2018-05-15T23:03:18.113Z,98077
2018-05-15T23:05:45.472Z,98072
2018-05-15T23:08:13.150Z,98070
2018-05-15T23:10:41.659Z,98062
2018-05-15T23:13:09.015Z,98063
2018-05-15T23:15:37.357Z,98068
2018-05-15T23:18:05.061Z,98063
2018-05-15T23:20:32.392Z,98057
2018-05-15T23:23:00.660Z,98063
2018-05-15T23:25:28.250Z,98064
2018-05-15T23:27:55.712Z,98050
2018-05-15T23:30:23.140Z,98053
2018-05-15T23:32:51.362Z,98053
2018-05-15T23:35:18.670Z,98057
2018-05-15T23:37:47.101Z,98055
2018-05-15T23:40:15.621Z,98051
2018-05-15T23:42:43.151Z,98059
2018-05-15T23:45:10.682Z,98045
2018-05-15T23:47:38.760Z,98044
2018-05-15T23:50:07.551Z,98047
2018-05-15T23:52:35.847Z,98042
2018-05-15T23:55:03.301Z,98046
2018-05-15T23:57:30.781Z,98056
2018-05-15T23:59:58.291Z,98048
